Latest Coastal Weather Observations for Taree Airport

IDN60701

Issued at 8:45 pm EDT Friday 28 November 2014 (issued every 10 minutes, with the page automatically refreshed every 10 minutes)

About coastal observations | Map of coastal stations | Coastal observations for NSW | Marine services | Other Formats
Station Details ID: 060141 Name: TAREE AIRPORT AWS Lat: -31.89 Lon: 152.51 Height: 8.0 m
Data from the previous 72 hours. | See also: Recent months at Taree Airport
Date/Time
EDT
Temp

°C
Wind Pressure Rain
since 9am
mm
Weather Cloud Vis
km
Sea
Height
m
Swell
Dir
 
Speed
knots
Gust
knots
hPa Trend Height
m
Period
s
Dir
28/08:30pm 19.4 NE 1 4 1020.3 - 0.8 - - - - - - -
28/08:00pm 20.0 CALM 0 0 1020.3 - 0.8 - - - - - - -
28/07:30pm 20.5 ENE 5 6 1020.3 - 0.8 - - - - - - -
28/07:00pm 20.7 E 6 8 1020.2 - 0.8 - - - - - - -
28/06:30pm 20.8 E 7 8 1020.2 - 0.8 - - - - - - -
28/06:00pm 20.9 E 8 10 1020.2 - 0.6 - - - - - - -
28/05:30pm 21.0 ENE 8 10 1020.1 - 0.6 - - - - - - -
28/05:00pm 21.2 ENE 6 11 1020.3 - 0.6 - - - - - - -
28/04:30pm 21.2 E 8 11 1020.6 - 0.6 - - - - - - -
28/04:00pm 21.1 E 7 10 1020.7 - 0.6 - - - - - - -
28/03:30pm 20.9 E 6 9 1021.0 - 0.6 - - - - - - -
28/03:00pm 21.0 E 6 9 1021.2 - 0.6 Recent precip. - - - - - -
28/02:30pm 21.4 ESE 7 10 1021.5 - 0.6 - - - - - - -
28/02:00pm 20.8 ESE 7 10 1021.8 - 0.4 - - - - - - -
28/01:30pm 20.7 SE 6 8 1022.0 - 0.4 - - - - - - -
28/01:00pm 19.6 SW 2 6 1022.4 - 0.4 - - - - - - -
28/12:30pm 20.5 SW 5 6 1022.7 - 0.4 - - - - - - -
28/12:00pm 20.0 WSW 3 5 1022.8 - 0.2 Recent precip. - - - - - -
28/11:30am 19.2 NW 4 6 1022.9 - 0.2 - - - - - - -
28/11:00am 18.7 N 4 5 1023.2 - 0.0 - - - - - - -
28/10:30am 18.3 NNW 3 4 1023.1 - 0.0 - - - - - - -
28/10:00am 18.1 W 3 5 1022.9 - 0.0 - - - - - - -
28/09:30am 18.4 WSW 5 6 1022.8 - 0.0 - - - - - - -
28/09:00am 18.5 NW 5 7 1022.6 - 8.2 - - - - - - -
28/08:30am 18.5 NW 5 7 1022.4 - 8.2 - - - - - - -
28/08:00am 18.1 WNW 5 6 1022.0 - 8.2 - - - - - - -
28/07:30am 17.8 W 7 8 1021.7 - 8.2 - - - - - - -
28/07:00am 17.8 WNW 5 7 1021.5 - 8.2 - - - - - - -
28/06:30am 17.9 W 4 5 1021.3 - 8.0 - - - - - - -
28/06:00am 17.9 WSW 6 7 1021.2 - 8.0 - - - - - - -
28/05:30am 17.9 SW 7 9 1020.9 - 8.0 - - - - - - -
28/05:00am 18.0 SW 5 6 1020.5 - 8.0 - - - - - - -
28/04:30am 18.1 WSW 5 7 1020.4 - 8.0 - - - - - - -
28/04:00am 18.1 SW 7 8 1020.5 - 8.0 - - - - - - -
28/03:30am 18.3 SSW 6 8 1020.8 - 8.0 - - - - - - -
28/03:00am 18.4 SSW 6 8 1020.7 - 8.0 - - - - - - -
28/02:30am 18.5 SSW 6 8 1020.9 - 8.0 - - - - - - -
28/02:00am 18.5 SSW 5 6 1021.1 - 8.0 - - - - - - -
28/01:30am 18.7 SSW 4 5 1021.3 - 8.0 - - - - - - -
28/01:00am 19.2 SE 5 7 1021.5 - 8.0 - - - - - - -
28/12:30am 19.3 SE 6 9 1021.8 - 8.0 - - - - - - -
28/12:00am 19.5 SE 6 8 1021.9 - 8.0 - - - - - - -
 
Date/Time
EDT
Temp

°C
Wind Pressure Rain
since 9am
mm
Weather Cloud Vis
km
Sea
Height
m
Swell
Dir
 
Speed
knots
Gust
knots
hPa Trend Height
m
Period
s
Dir
27/11:30pm 19.6 SE 7 9 1022.1 - 8.0 - - - - - - -
27/11:00pm 19.0 SSE 5 8 1022.2 - 8.0 - - - - - - -
27/10:30pm 18.3 ESE 1 5 1022.3 - 8.0 - - - - - - -
27/10:00pm 18.4 N 2 5 1022.3 - 8.0 - - - - - - -
27/09:30pm 18.5 WNW 4 5 1022.2 - 7.8 - - - - - - -
27/09:00pm 18.3 CALM 0 0 1022.0 - 7.8 - - - - - - -
27/08:30pm 18.2 CALM 0 0 1021.8 - 7.8 - - - - - - -
27/08:00pm 18.3 ENE 4 4 1021.7 - 7.8 - - - - - - -
27/07:30pm 18.5 ESE 5 6 1021.7 - 7.6 - - - - - - -
27/07:00pm 19.2 SSE 7 11 1021.2 - 7.4 - - - - - - -
27/06:30pm 20.1 SSE 7 9 1020.8 - 7.4 - - - - - - -
27/06:00pm 20.3 SSE 9 13 1020.4 - 7.4 - - - - - - -
27/05:30pm 20.9 S 10 15 1020.0 - 7.4 - - - - - - -
27/05:00pm 21.6 SSE 11 15 1019.8 - 7.4 - - - - - - -
27/04:30pm 22.9 SSE 13 15 1019.5 - 7.4 - - - - - - -
27/04:00pm 23.0 ESE 11 15 1019.6 - 7.4 - - - - - - -
27/03:30pm 22.9 E 11 14 1019.9 - 7.4 - - - - - - -
27/03:00pm 21.7 SE 8 11 1020.0 - 7.4 Recent precip. - - - - - -
27/02:30pm 21.5 SE 7 10 1020.0 - 7.4 - - - - - - -
27/02:00pm 21.5 SE 8 11 1020.1 - 7.0 - - - - - - -
27/01:30pm 21.6 SE 7 11 1020.0 - 2.0 - - - - - - -
27/01:00pm 21.4 SE 8 12 1020.0 - 1.8 - - - - - - -
27/12:30pm 21.3 SE 7 10 1020.0 - 1.6 - - - - - - -
27/12:00pm 21.3 SSE 9 13 1019.8 - 1.2 Recent precip. - - - - - -
27/11:30am 21.0 SSE 8 13 1019.7 - 1.0 - - - - - - -
27/11:00am 20.8 SSE 10 16 1019.6 - 0.8 - - - - - - -
27/10:30am 21.3 SSE 8 16 1019.1 - 0.6 - - - - - - -
27/10:00am 20.3 SSE 10 14 1019.1 - 0.4 - - - - - - -
27/09:30am 20.6 ESE 3 7 1018.7 - 0.2 - - - - - - -
27/09:00am 21.0 ESE 10 15 1018.4 - 10.6 Recent precip. - - - - - -
27/08:30am 21.1 SE 7 9 1018.2 - 10.4 - - - - - - -
27/08:00am 20.7 SE 5 8 1017.9 - 10.4 - - - - - - -
27/07:30am 20.3 SSE 4 5 1017.7 - 10.2 - - - - - - -
27/07:00am 20.0 SSW 5 7 1017.3 - 10.0 - - - - - - -
27/06:30am 19.8 WSW 3 5 1017.0 - 10.0 - - - - - - -
27/06:00am 19.7 NNW 4 4 1016.5 - 9.8 - - - - - - -
27/05:30am 19.8 NNW 3 4 1016.1 - 9.8 - - - - - - -
27/05:00am 19.6 W 4 5 1015.9 - 9.8 - - - - - - -
27/04:30am 19.7 CALM 0 0 1015.4 - 9.6 - - - - - - -
27/04:00am 19.7 WSW 5 6 1015.1 - 8.6 - - - - - - -
27/03:30am 19.6 WSW 6 7 1015.1 - 7.0 - - - - - - -
27/03:00am 20.0 E 5 8 1015.1 - 4.4 Rain - - - - - -
27/02:30am 20.1 S 3 5 1015.5 - 0.0 - - - - - - -
27/02:00am 20.2 SE 7 9 1015.5 - 0.0 - - - - - - -
27/01:30am 20.1 ESE 6 8 1015.5 - 0.0 - - - - - - -
27/01:00am 20.0 SSW 5 5 1016.0 - 0.0 - - - - - - -
27/12:30am 19.7 SSE 4 6 1015.9 - 0.0 - - - - - - -
27/12:00am 19.4 CALM 0 0 1016.0 - 0.0 - - - - - - -
 
Date/Time
EDT
Temp

°C
Wind Pressure Rain
since 9am
mm
Weather Cloud Vis
km
Sea
Height
m
Swell
Dir
 
Speed
knots
Gust
knots
hPa Trend Height
m
Period
s
Dir
26/11:30pm 19.0 E 1 4 1016.3 - 0.0 - - - - - - -
26/11:00pm 19.6 CALM 0 0 1016.3 - 0.0 - - - - - - -
26/10:30pm 19.8 CALM 0 2 1016.3 - 0.0 - - - - - - -
26/10:00pm 19.8 NE 4 5 1016.6 - 0.0 - - - - - - -
26/09:30pm 20.3 NE 3 4 1016.8 - 0.0 - - - - - - -
26/09:00pm 20.8 ENE 5 7 1016.5 - 0.0 - - - - - - -
26/08:30pm 21.3 ENE 6 8 1016.5 - 0.0 - - - - - - -
26/08:00pm 21.8 NE 5 7 1016.6 - 0.0 - - - - - - -
26/07:30pm 22.0 NE 5 7 1016.7 - 0.0 - - - - - - -
26/07:00pm 22.1 NE 6 9 1016.4 - 0.0 - - - - - - -
26/06:30pm 22.3 ENE 10 13 1016.2 - 0.0 - - - - - - -
26/06:00pm 22.5 ENE 13 15 1015.7 - 0.0 - - - - - - -
26/05:30pm 22.3 ENE 13 17 1015.6 - 0.0 - - - - - - -
26/05:00pm 22.6 ENE 13 16 1015.7 - 0.0 - - - - - - -
26/04:30pm 23.2 ENE 12 17 1015.7 - 0.0 - - - - - - -
26/04:00pm 23.2 NE 12 16 1015.7 - 0.0 - - - - - - -
26/03:30pm 23.3 ENE 14 18 1016.1 - 0.0 - - - - - - -
26/03:00pm 23.7 NE 11 18 1016.1 - 0.0 - - - - - - -
26/02:30pm 23.6 ENE 16 19 1016.4 - 0.0 - - - - - - -
26/02:00pm 23.8 ENE 14 18 1016.8 - 0.0 - - - - - - -
26/01:30pm 23.3 ENE 14 18 1017.2 - 0.0 - - - - - - -
26/01:00pm 23.3 E 12 16 1017.5 - 0.0 - - - - - - -
26/12:30pm 23.5 ENE 11 16 1018.0 - 0.0 - - - - - - -
26/12:00pm 23.4 E 10 14 1018.2 - 0.0 - - - - - - -
26/11:30am 22.7 ENE 11 14 1018.4 - 0.0 - - - - - - -
26/11:00am 23.3 E 10 15 1018.7 - 0.0 - - - - - - -
26/10:30am 22.9 E 9 13 1018.5 - 0.0 - - - - - - -
26/10:00am 22.7 ENE 8 11 1018.6 - 0.0 - - - - - - -
26/09:30am 22.8 NE 9 13 1018.6 - 0.0 - - - - - - -
26/09:00am 22.2 NE 8 12 1018.6 - 1.2 - - - - - - -
26/08:30am 21.9 NE 7 9 1018.9 - 1.2 - - - - - - -
26/08:00am 21.7 NE 4 5 1019.1 - 1.2 - - - - - - -
26/07:30am 20.9 CALM 0 0 1018.9 - 1.2 - - - - - - -
26/07:00am 20.3 CALM 0 0 1018.7 - 1.2 - - - - - - -
26/06:30am 20.0 CALM 0 0 1018.6 - 1.2 - - - - - - -
26/06:00am 19.3 CALM 0 0 1018.6 - 1.2 - - - - - - -
26/05:30am 19.8 CALM 0 0 1018.4 - 1.2 - - - - - - -
26/05:00am 19.7 CALM 0 0 1018.2 - 1.2 - - - - - - -
26/04:30am 19.7 CALM 0 0 1018.1 - 1.2 - - - - - - -
26/04:00am 19.8 CALM 0 0 1017.9 - 1.2 - - - - - - -
26/03:30am 19.9 E 1 4 1017.9 - 1.2 - - - - - - -
26/03:00am 19.5 CALM 0 0 1018.3 - 1.2 - - - - - - -
26/02:30am 19.6 CALM 0 0 1018.2 - 1.2 - - - - - - -
26/02:00am 19.7 CALM 0 0 1018.7 - 1.2 - - - - - - -
26/01:30am 19.8 CALM 0 0 1019.0 - 1.2 - - - - - - -
26/01:00am 20.1 CALM 0 0 1019.2 - 1.2 - - - - - - -
26/12:30am 20.1 CALM 0 0 1019.5 - 1.2 - - - - - - -
26/12:00am 20.3 CALM 0 0 1019.5 - 1.2 - - - - - - -
 
Date/Time
EDT
Temp

°C
Wind Pressure Rain
since 9am
mm
Weather Cloud Vis
km
Sea
Height
m
Swell
Dir
 
Speed
knots
Gust
knots
hPa Trend Height
m
Period
s
Dir
25/11:30pm 20.4 E 3 4 1019.8 - 1.2 - - - - - - -
25/11:00pm 20.5 E 4 4 1019.8 - 1.2 - - - - - - -
25/10:30pm 20.6 E 5 7 1019.7 - 1.2 - - - - - - -
25/10:00pm 20.6 E 5 6 1019.8 - 1.2 - - - - - - -
25/09:30pm 20.7 ESE 4 5 1019.3 - 1.2 - - - - - - -
25/09:00pm 20.7 S 4 5 1019.2 - 1.2 - - - - - - -

Other Formats:

Comma delimited format used in spreadsheet applications
http://www.bom.gov.au/fwo/IDN60701/IDN60701.95784.axf

JavaScript Object Notation format (JSON) in row-major order
http://www.bom.gov.au/fwo/IDN60701/IDN60701.95784.json